Time;durP1;ratioP1;P1;durP2;ratioP2;P2;SDS_P1;SDS_P2;PMS_P1;PMS_P2;Temp;Humidity;BMP_temperature;BMP_pressure;BME280_temperature;BME280_humidity;BME280_pressure;Samples;Min_cycle;Max_cycle;Signal;HPM_P1;HPM_P2
2022/07/10 00:01:29;;;;;;;4.60;1.53;;;15.00;99.90;;;;;;4997461;28;21004;-77
2022/07/10 00:03:57;;;;;;;8.13;1.70;;;15.00;99.90;;;;;;4997322;28;20445;-78
2022/07/10 00:06:26;;;;;;;6.00;1.70;;;15.00;99.90;;;;;;4997042;28;21049;-76
2022/07/10 00:08:55;;;;;;;4.63;1.87;;;14.90;99.90;;;;;;4996797;28;20519;-76
2022/07/10 00:11:23;;;;;;;4.93;2.03;;;15.00;99.90;;;;;;4996415;28;21009;-79
2022/07/10 00:13:51;;;;;;;8.57;2.07;;;14.90;99.90;;;;;;4999319;28;20869;-79
2022/07/10 00:16:19;;;;;;;6.00;2.00;;;14.90;99.90;;;;;;4998918;28;20440;-79
2022/07/10 00:18:48;;;;;;;4.73;1.57;;;14.90;99.90;;;;;;4998554;28;20531;-79
2022/07/10 00:21:16;;;;;;;7.37;1.60;;;14.90;99.90;;;;;;4995728;28;20474;-80
2022/07/10 00:23:45;;;;;;;3.20;1.83;;;14.90;99.90;;;;;;4996238;28;20463;-79
2022/07/10 00:26:14;;;;;;;3.87;1.23;;;14.90;99.90;;;;;;4995543;28;20449;-77
2022/07/10 00:28:42;;;;;;;4.63;1.10;;;14.90;99.90;;;;;;4997378;28;20443;-79
2022/07/10 00:31:10;;;;;;;4.03;1.37;;;14.90;99.90;;;;;;4996582;28;20472;-77
2022/07/10 00:33:39;;;;;;;4.50;1.40;;;14.90;99.90;;;;;;4994272;28;20950;-76
2022/07/10 00:36:07;;;;;;;4.37;1.50;;;14.90;99.90;;;;;;4996042;28;20452;-77
2022/07/10 00:38:36;;;;;;;4.77;1.20;;;14.90;99.90;;;;;;4995846;28;20448;-78
2022/07/10 00:41:06;;;;;;;5.83;1.50;;;14.90;99.90;;;;;;4995021;28;20531;-77
2022/07/10 00:43:52;;;;;;;5.47;2.00;;;14.90;99.90;;;;;;4995966;28;20509;-79
2022/07/10 00:46:21;;;;;;;3.30;1.00;;;14.90;99.90;;;;;;4995093;28;20809;-78
2022/07/10 00:48:49;;;;;;;4.50;1.50;;;14.90;99.90;;;;;;4994752;28;20484;-78
2022/07/10 00:51:19;;;;;;;3.70;1.43;;;14.90;99.90;;;;;;4996116;28;20882;-78
2022/07/10 00:53:49;;;;;;;4.87;1.20;;;14.80;99.90;;;;;;4995165;28;20453;-78
2022/07/10 00:56:21;;;;;;;4.23;1.63;;;14.80;99.90;;;;;;4995234;28;20540;-78
2022/07/10 00:58:50;;;;;;;4.03;1.60;;;14.90;99.90;;;;;;4995047;28;20443;-78
2022/07/10 01:01:18;;;;;;;4.50;1.37;;;14.80;99.90;;;;;;4996788;28;20469;-78
2022/07/10 01:03:47;;;;;;;4.00;1.43;;;14.80;99.90;;;;;;4995447;28;20453;-79
2022/07/10 01:06:16;;;;;;;5.90;1.20;;;14.80;99.90;;;;;;4994848;28;20942;-79
2022/07/10 01:08:45;;;;;;;5.03;1.30;;;14.80;99.90;;;;;;4996454;28;20933;-78
2022/07/10 01:11:15;;;;;;;5.60;1.50;;;14.80;99.90;;;;;;4995011;28;20510;-78
2022/07/10 01:13:45;;;;;;;5.57;1.50;;;14.80;99.90;;;;;;4994384;28;20453;-79
2022/07/10 01:16:14;;;;;;;5.10;1.93;;;14.80;99.90;;;;;;4996886;28;20756;-78
2022/07/10 01:18:42;;;;;;;4.73;1.70;;;14.80;99.90;;;;;;4995781;28;21093;-78
2022/07/10 01:21:25;;;;;;;4.80;1.30;;;14.80;99.90;;;;;;4994312;28;20516;-77
2022/07/10 01:23:54;;;;;;;2.93;1.10;;;14.80;99.90;;;;;;4994146;28;20441;-78
2022/07/10 01:26:24;;;;;;;3.50;1.50;;;14.80;99.90;;;;;;4993804;28;20556;-76
2022/07/10 01:28:53;;;;;;;6.30;2.00;;;14.70;99.90;;;;;;4993504;28;20484;-77
2022/07/10 01:31:26;;;;;;;5.23;1.60;;;14.70;99.90;;;;;;4994320;28;20597;-78
2022/07/10 01:33:55;;;;;;;4.60;1.80;;;14.70;99.90;;;;;;4994563;28;20817;-79
2022/07/10 01:36:25;;;;;;;4.70;1.60;;;14.70;99.90;;;;;;4994330;28;20499;-78
2022/07/10 01:38:54;;;;;;;6.87;1.60;;;14.70;99.90;;;;;;4997620;28;20437;-79
2022/07/10 01:41:22;;;;;;;6.67;1.40;;;14.70;99.90;;;;;;4994571;28;20476;-79
2022/07/10 01:43:50;;;;;;;5.27;1.67;;;14.70;99.90;;;;;;4994304;28;20460;-78
2022/07/10 01:46:18;;;;;;;5.13;1.83;;;14.70;99.90;;;;;;4996569;28;20543;-78
2022/07/10 01:48:47;;;;;;;5.30;2.23;;;14.70;99.90;;;;;;4994185;28;20444;-78
2022/07/10 01:51:16;;;;;;;4.30;1.40;;;14.70;99.90;;;;;;4993338;28;20477;-78
2022/07/10 01:53:45;;;;;;;7.10;2.50;;;14.70;99.90;;;;;;4996041;28;20464;-78
2022/07/10 01:56:15;;;;;;;5.10;1.50;;;14.70;99.90;;;;;;4993457;28;20456;-79
2022/07/10 01:58:43;;;;;;;5.13;1.60;;;14.60;99.90;;;;;;4995612;28;20454;-78
2022/07/10 02:01:13;;;;;;;5.60;1.30;;;14.60;99.90;;;;;;4993036;28;20468;-79
2022/07/10 02:06:27;;;;;;;4.30;2.10;;;14.70;99.90;;;;;;4994515;28;20499;-77
2022/07/10 02:08:56;;;;;;;6.20;1.70;;;14.70;99.90;;;;;;4996889;28;20810;-78
2022/07/10 02:11:24;;;;;;;4.10;1.40;;;14.70;99.90;;;;;;4999659;28;20531;-80
2022/07/10 02:13:53;;;;;;;5.07;1.80;;;14.70;99.90;;;;;;4998886;28;20441;-77
2022/07/10 02:16:24;;;;;;;4.93;1.80;;;14.60;99.90;;;;;;4999473;28;20444;-77
2022/07/10 02:18:52;;;;;;;6.23;1.80;;;14.60;99.90;;;;;;4996902;28;20512;-77
2022/07/10 02:21:20;;;;;;;7.70;1.70;;;14.60;99.90;;;;;;4996817;28;20476;-77
2022/07/10 02:23:48;;;;;;;5.07;2.23;;;14.60;99.90;;;;;;4997036;28;20537;-77
2022/07/10 02:26:18;;;;;;;4.90;2.00;;;14.70;99.90;;;;;;4997655;28;20416;-78
2022/07/10 02:28:46;;;;;;;6.70;1.50;;;14.60;99.90;;;;;;4997479;28;20457;-77
2022/07/10 02:31:14;;;;;;;5.27;1.70;;;14.60;99.90;;;;;;4996877;28;20555;-77
2022/07/10 02:33:42;;;;;;;8.13;2.93;;;14.60;99.90;;;;;;4998042;28;20958;-78
2022/07/10 02:36:10;;;;;;;8.43;1.80;;;14.60;99.90;;;;;;4996843;28;20453;-79
2022/07/10 02:38:38;;;;;;;3.50;1.60;;;14.60;99.90;;;;;;4998889;28;20448;-79
2022/07/10 02:41:07;;;;;;;5.90;2.07;;;14.50;99.90;;;;;;4998244;28;20507;-79
2022/07/10 02:43:37;;;;;;;5.20;1.70;;;14.50;99.90;;;;;;4997336;28;20449;-77
2022/07/10 02:46:05;;;;;;;5.20;1.70;;;14.50;99.90;;;;;;4998939;28;20437;-77
2022/07/10 02:48:33;;;;;;;3.10;1.60;;;14.50;99.90;;;;;;4998807;28;21000;-77
2022/07/10 02:51:01;;;;;;;4.37;1.80;;;14.50;99.90;;;;;;4998223;28;20798;-78
2022/07/10 02:53:30;;;;;;;7.47;2.43;;;14.40;99.90;;;;;;4999424;28;20468;-78
2022/07/10 02:55:59;;;;;;;7.07;1.67;;;14.40;99.90;;;;;;4998258;28;20433;-79
2022/07/10 02:58:27;;;;;;;4.00;1.80;;;14.40;99.90;;;;;;4998784;28;20445;-79
2022/07/10 03:00:56;;;;;;;5.30;1.70;;;14.40;99.90;;;;;;4998645;28;20464;-78
2022/07/10 03:03:25;;;;;;;6.63;1.80;;;14.30;99.90;;;;;;4996994;28;20511;-77
2022/07/10 03:05:53;;;;;;;6.53;1.47;;;14.30;99.90;;;;;;4997076;28;20463;-77
2022/07/10 03:08:21;;;;;;;4.10;1.90;;;14.30;99.90;;;;;;4998835;28;20881;-77
2022/07/10 03:10:49;;;;;;;4.30;1.77;;;14.30;99.90;;;;;;4997272;28;20480;-78
2022/07/10 03:13:18;;;;;;;4.63;1.80;;;14.20;99.90;;;;;;4997629;28;20559;-78
2022/07/10 03:15:46;;;;;;;5.30;1.90;;;14.20;99.90;;;;;;4996960;28;20456;-78
2022/07/10 03:18:16;;;;;;;7.43;1.87;;;14.20;99.90;;;;;;4997427;28;20456;-79
2022/07/10 03:20:45;;;;;;;7.10;2.13;;;14.10;99.90;;;;;;4996950;28;20484;-79
2022/07/10 03:23:13;;;;;;;5.70;2.07;;;14.10;99.90;;;;;;4998725;28;20453;-77
2022/07/10 03:25:41;;;;;;;6.90;2.90;;;14.10;99.90;;;;;;4998176;28;20441;-77
2022/07/10 03:28:09;;;;;;;4.90;1.83;;;14.10;99.90;;;;;;4998573;28;20452;-78
2022/07/10 03:30:37;;;;;;;8.50;2.30;;;14.10;99.90;;;;;;4996821;28;20472;-76
2022/07/10 03:33:06;;;;;;;6.80;1.97;;;14.10;99.90;;;;;;4997517;28;20468;-77
2022/07/10 03:35:35;;;;;;;5.03;2.30;;;14.00;99.90;;;;;;4996308;28;20483;-78
2022/07/10 03:38:03;;;;;;;5.33;1.80;;;14.00;99.90;;;;;;4998241;28;20448;-78
2022/07/10 03:40:32;;;;;;;5.90;2.40;;;14.00;99.90;;;;;;4996577;28;20492;-78
2022/07/10 03:43:00;;;;;;;4.77;1.77;;;14.10;99.90;;;;;;4997005;28;20555;-78
2022/07/10 03:45:28;;;;;;;5.97;2.00;;;14.10;99.90;;;;;;4996789;28;20445;-78
2022/07/10 03:47:57;;;;;;;6.60;2.50;;;14.10;99.90;;;;;;4998028;28;20499;-78
2022/07/10 03:50:25;;;;;;;6.43;2.07;;;14.10;99.90;;;;;;4997946;28;20870;-78
2022/07/10 03:52:55;;;;;;;4.80;1.60;;;14.10;99.90;;;;;;4995973;28;20472;-78
2022/07/10 03:55:23;;;;;;;7.73;1.80;;;14.10;99.90;;;;;;4995963;28;20547;-78
2022/07/10 03:57:53;;;;;;;5.27;1.90;;;14.10;99.90;;;;;;4996988;28;20445;-77
2022/07/10 04:00:25;;;;;;;6.27;2.87;;;14.10;99.90;;;;;;4997813;28;20568;-78
2022/07/10 04:02:57;;;;;;;6.10;2.03;;;14.20;99.90;;;;;;4996084;28;20492;-80
2022/07/10 04:05:26;;;;;;;5.27;2.10;;;14.20;99.90;;;;;;4996846;28;20464;-77
2022/07/10 04:07:57;;;;;;;6.17;1.90;;;14.20;99.90;;;;;;4995112;28;20540;-78
2022/07/10 04:10:26;;;;;;;6.13;2.30;;;14.20;99.90;;;;;;4994850;28;20500;-77
2022/07/10 04:12:55;;;;;;;6.93;2.00;;;14.20;99.90;;;;;;4995066;28;20568;-77
2022/07/10 04:15:24;;;;;;;5.50;2.10;;;14.30;99.90;;;;;;4994995;28;20874;-77
2022/07/10 04:17:53;;;;;;;7.57;2.40;;;14.30;99.90;;;;;;4995029;28;20465;-78
2022/07/10 04:20:21;;;;;;;6.90;2.27;;;14.30;99.90;;;;;;4994903;28;20469;-79
2022/07/10 04:22:50;;;;;;;6.37;2.10;;;14.30;99.90;;;;;;4995142;28;20540;-78
2022/07/10 04:25:20;;;;;;;4.83;2.20;;;14.30;99.90;;;;;;4994639;28;20889;-79
2022/07/10 04:27:48;;;;;;;5.50;2.33;;;14.30;99.90;;;;;;4994533;28;20543;-77
2022/07/10 04:30:16;;;;;;;7.37;2.33;;;14.30;99.90;;;;;;4994179;28;20486;-78
2022/07/10 04:32:44;;;;;;;7.40;2.10;;;14.30;99.90;;;;;;4995542;28;20473;-77
2022/07/10 04:35:13;;;;;;;6.40;2.00;;;14.30;99.90;;;;;;4995805;28;20484;-78
2022/07/10 04:37:41;;;;;;;6.70;2.13;;;14.30;99.90;;;;;;4997140;28;20449;-78
2022/07/10 04:40:11;;;;;;;3.80;1.90;;;14.30;99.90;;;;;;4998147;28;20799;-78
2022/07/10 04:42:40;;;;;;;5.77;2.10;;;14.30;99.90;;;;;;4997987;28;20576;-78
2022/07/10 04:45:09;;;;;;;5.03;2.37;;;14.30;99.90;;;;;;4995338;28;20827;-77
2022/07/10 04:47:38;;;;;;;8.87;2.83;;;14.20;99.90;;;;;;4997325;28;20948;-78
2022/07/10 04:50:07;;;;;;;5.17;2.10;;;14.30;99.90;;;;;;4996495;28;20472;-79
2022/07/10 04:52:36;;;;;;;6.07;3.20;;;14.30;99.90;;;;;;4997218;28;20777;-79
2022/07/10 04:55:04;;;;;;;4.47;2.00;;;14.20;99.90;;;;;;4997369;28;20471;-78
2022/07/10 04:57:33;;;;;;;4.80;2.00;;;14.30;99.90;;;;;;4995892;28;20539;-78
2022/07/10 05:00:03;;;;;;;6.93;2.90;;;14.30;99.90;;;;;;4995395;28;20509;-78
2022/07/10 05:02:32;;;;;;;7.73;2.43;;;14.30;99.90;;;;;;4995636;28;20445;-78
2022/07/10 05:05:00;;;;;;;5.60;2.40;;;14.30;99.90;;;;;;4996988;28;20444;-79
2022/07/10 05:07:28;;;;;;;5.97;2.23;;;14.40;99.90;;;;;;4995044;28;20455;-78
2022/07/10 05:09:56;;;;;;;4.27;1.70;;;14.40;99.90;;;;;;4995937;28;20483;-77
2022/07/10 05:12:24;;;;;;;3.67;1.87;;;14.40;99.90;;;;;;4994803;28;20491;-78
2022/07/10 05:14:53;;;;;;;9.13;3.07;;;14.40;99.90;;;;;;4996464;28;20503;-79
2022/07/10 05:17:22;;;;;;;8.80;2.40;;;14.50;99.90;;;;;;4996097;28;20438;-79
2022/07/10 05:19:51;;;;;;;5.80;2.07;;;14.50;99.90;;;;;;4996512;28;20488;-79
2022/07/10 05:22:20;;;;;;;5.10;2.13;;;14.50;99.90;;;;;;4996559;28;20456;-77
2022/07/10 05:24:48;;;;;;;5.03;2.10;;;14.50;99.90;;;;;;5002488;28;20503;-80
2022/07/10 05:27:18;;;;;;;7.00;2.27;;;14.60;99.90;;;;;;4999334;28;21017;-78
2022/07/10 05:29:47;;;;;;;4.30;1.80;;;14.60;99.90;;;;;;4998931;28;20444;-78
2022/07/10 05:32:15;;;;;;;6.03;2.47;;;14.70;99.90;;;;;;4996403;28;20447;-78
2022/07/10 05:34:45;;;;;;;9.83;2.60;;;14.70;99.90;;;;;;4997615;28;20554;-80
2022/07/10 05:37:13;;;;;;;7.80;2.27;;;14.80;99.90;;;;;;4997067;28;20465;-77
2022/07/10 05:39:41;;;;;;;5.33;1.90;;;14.80;99.90;;;;;;4995308;28;20954;-78
2022/07/10 05:42:10;;;;;;;7.73;2.57;;;14.90;99.90;;;;;;4994537;28;20535;-80
2022/07/10 05:44:38;;;;;;;5.50;2.03;;;14.90;99.90;;;;;;4993560;28;20504;-77
2022/07/10 05:47:06;;;;;;;7.30;2.43;;;14.90;99.90;;;;;;4996773;28;20954;-78
2022/07/10 05:49:35;;;;;;;5.23;1.73;;;14.90;99.90;;;;;;4994698;28;20460;-78
2022/07/10 05:52:06;;;;;;;7.73;2.33;;;15.00;99.90;;;;;;4994934;28;20452;-79
2022/07/10 05:54:34;;;;;;;5.90;2.00;;;15.00;99.90;;;;;;4994600;28;20575;-77
2022/07/10 05:57:02;;;;;;;12.13;2.63;;;15.00;99.90;;;;;;4994368;28;20548;-79
2022/07/10 05:59:34;;;;;;;4.40;2.07;;;15.10;99.90;;;;;;4995162;28;20907;-79
2022/07/10 06:02:02;;;;;;;7.33;3.23;;;15.10;99.90;;;;;;4995851;28;20445;-81
2022/07/10 06:04:31;;;;;;;4.60;1.80;;;15.20;99.90;;;;;;4995641;28;20460;-79
2022/07/10 06:06:59;;;;;;;12.83;3.47;;;15.30;99.90;;;;;;4995534;28;20529;-78
2022/07/10 06:09:29;;;;;;;5.83;2.10;;;15.50;99.90;;;;;;4993767;28;20457;-78
2022/07/10 06:11:58;;;;;;;5.03;2.07;;;15.70;99.90;;;;;;4995122;28;20470;-81
2022/07/10 06:14:26;;;;;;;8.03;2.40;;;15.90;99.90;;;;;;4995525;28;20479;-79
2022/07/10 06:16:54;;;;;;;10.73;3.20;;;16.00;99.90;;;;;;4996371;28;20411;-78
2022/07/10 06:19:22;;;;;;;4.17;1.80;;;16.30;99.90;;;;;;4997012;28;20524;-79
2022/07/10 06:22:30;;;;;;;7.33;2.57;;;16.50;99.90;;;;;;4994788;28;20535;-79
2022/07/10 06:24:40;;;;;;;6.30;2.00;;;16.60;99.90;;;;;;4997118;28;20445;-78
2022/07/10 06:27:09;;;;;;;6.57;2.33;;;16.60;99.90;;;;;;4994376;28;20455;-79
2022/07/10 06:29:37;;;;;;;6.40;2.60;;;16.60;99.90;;;;;;4994236;28;20470;-79
2022/07/10 06:32:06;;;;;;;5.60;2.47;;;16.60;99.90;;;;;;4996795;28;20449;-80
2022/07/10 06:34:34;;;;;;;7.50;2.63;;;16.70;99.90;;;;;;4995856;28;21045;-76
2022/07/10 06:37:03;;;;;;;8.30;2.50;;;16.70;99.90;;;;;;4994815;28;20439;-78
2022/07/10 06:39:34;;;;;;;7.57;2.30;;;16.70;99.90;;;;;;4993726;28;20431;-79
2022/07/10 06:42:06;;;;;;;7.00;2.97;;;16.60;99.90;;;;;;4994949;28;20433;-79
2022/07/10 06:44:40;;;;;;;8.20;2.57;;;16.60;99.90;;;;;;4995463;28;20431;-78
2022/07/10 06:49:56;;;;;;;4.93;2.20;;;16.50;99.90;;;;;;4995848;28;20460;-79
2022/07/10 06:52:24;;;;;;;9.43;2.13;;;16.40;99.90;;;;;;4994887;28;20421;-79
2022/07/10 06:54:53;;;;;;;7.30;2.43;;;16.40;99.90;;;;;;4996726;28;20478;-79
2022/07/10 06:57:23;;;;;;;7.10;2.47;;;16.50;99.90;;;;;;5000371;28;20543;-80
2022/07/10 06:59:52;;;;;;;6.60;2.37;;;16.50;99.90;;;;;;4998319;28;20459;-78
2022/07/10 07:02:21;;;;;;;9.17;3.87;;;16.50;99.90;;;;;;4998567;28;20448;-79
2022/07/10 07:04:49;;;;;;;7.63;2.80;;;16.50;99.90;;;;;;4999808;28;20480;-78
2022/07/10 07:07:18;;;;;;;7.30;2.83;;;16.50;99.90;;;;;;4997759;28;20448;-78
2022/07/10 07:09:52;;;;;;;8.47;2.40;;;16.50;99.90;;;;;;4998345;28;20411;-76
2022/07/10 07:12:21;;;;;;;6.53;2.40;;;16.50;99.90;;;;;;4997461;28;20456;-78
2022/07/10 07:14:50;;;;;;;14.60;3.13;;;16.60;99.90;;;;;;4998436;28;20833;-77
2022/07/10 07:17:23;;;;;;;6.30;2.83;;;16.60;99.90;;;;;;4998687;28;20502;-80
2022/07/10 07:25:24;;;;;;;4.10;2.07;;;17.00;99.90;;;;;;4998651;28;20491;-80
2022/07/10 07:27:52;;;;;;;6.10;2.30;;;17.20;99.90;;;;;;5002034;28;20443;-81
2022/07/10 07:30:21;;;;;;;6.00;2.23;;;17.40;99.90;;;;;;5005872;28;20535;-78
2022/07/10 07:32:50;;;;;;;7.43;2.47;;;17.50;99.90;;;;;;5006310;28;20426;-79
2022/07/10 07:35:18;;;;;;;11.43;2.87;;;17.60;99.90;;;;;;5001446;28;20443;-77
2022/07/10 07:37:47;;;;;;;7.37;2.57;;;17.60;99.90;;;;;;4997986;28;20428;-80
2022/07/10 07:40:19;;;;;;;8.23;2.27;;;17.60;99.90;;;;;;4999344;28;20481;-78
2022/07/10 07:42:47;;;;;;;6.17;2.37;;;17.60;99.90;;;;;;4996544;28;20427;-77
2022/07/10 07:45:16;;;;;;;8.10;2.50;;;17.80;99.90;;;;;;4996661;28;20445;-79
2022/07/10 07:47:47;;;;;;;6.07;2.23;;;17.90;99.90;;;;;;4998305;28;20449;-79
2022/07/10 07:50:17;;;;;;;12.23;3.03;;;17.90;99.90;;;;;;4996797;28;20483;-77
2022/07/10 07:52:46;;;;;;;5.83;1.83;;;17.90;99.90;;;;;;4995918;28;20435;-77
2022/07/10 07:55:15;;;;;;;4.90;2.20;;;17.80;99.90;;;;;;4996554;28;20504;-78
2022/07/10 07:57:44;;;;;;;5.50;2.47;;;17.70;99.90;;;;;;4996239;28;20459;-78
2022/07/10 08:00:14;;;;;;;6.30;2.43;;;17.60;99.90;;;;;;4998587;28;20443;-79
2022/07/10 08:02:43;;;;;;;8.40;2.93;;;17.60;99.90;;;;;;4996889;28;20428;-80
2022/07/10 08:05:12;;;;;;;6.50;2.60;;;17.70;99.90;;;;;;4996729;28;20804;-81
2022/07/10 08:07:43;;;;;;;5.17;2.63;;;17.90;99.90;;;;;;4995146;28;20455;-79
2022/07/10 08:10:13;;;;;;;7.40;2.13;;;18.00;99.90;;;;;;4997567;28;20468;-81
2022/07/10 08:12:41;;;;;;;10.20;3.27;;;18.10;99.90;;;;;;4998358;28;20444;-78
2022/07/10 08:15:11;;;;;;;6.57;2.50;;;18.10;99.90;;;;;;4998502;28;20523;-79
2022/07/10 08:17:41;;;;;;;3.93;1.63;;;18.20;99.90;;;;;;4996829;28;20556;-79
2022/07/10 08:20:13;;;;;;;6.73;1.90;;;18.20;99.90;;;;;;4997166;28;20459;-82
2022/07/10 08:22:42;;;;;;;7.50;2.07;;;18.30;99.90;;;;;;4998751;28;20421;-79
2022/07/10 08:25:11;;;;;;;6.20;2.23;;;18.30;99.90;;;;;;4996337;28;20526;-81
2022/07/10 08:27:39;;;;;;;8.80;2.97;;;18.30;99.90;;;;;;4996582;28;20980;-79
2022/07/10 08:30:10;;;;;;;6.20;2.30;;;18.40;99.80;;;;;;4996144;28;20472;-81
2022/07/10 08:32:39;;;;;;;5.13;2.10;;;18.40;99.50;;;;;;4995318;28;20864;-81
2022/07/10 08:35:08;;;;;;;7.63;2.27;;;18.40;99.40;;;;;;4997440;28;20565;-80
2022/07/10 08:37:42;;;;;;;6.57;3.20;;;18.40;99.40;;;;;;4997359;28;20440;-78
2022/07/10 08:40:12;;;;;;;5.13;2.00;;;18.50;99.30;;;;;;4995964;28;20486;-78
2022/07/10 08:42:44;;;;;;;6.93;2.63;;;18.50;99.30;;;;;;4997258;28;20803;-78
2022/07/10 08:45:13;;;;;;;5.20;2.00;;;18.50;99.10;;;;;;4996144;28;20453;-79
2022/07/10 08:47:44;;;;;;;6.50;2.77;;;18.40;98.90;;;;;;4997058;28;20795;-77
2022/07/10 08:50:20;;;;;;;5.60;2.10;;;18.50;98.80;;;;;;4994931;28;20473;-78
2022/07/10 08:52:55;;;;;;;5.77;2.10;;;18.60;98.80;;;;;;4994983;28;20419;-78
2022/07/10 08:55:26;;;;;;;8.63;2.83;;;18.70;98.70;;;;;;4996443;28;20460;-79
2022/07/10 08:57:56;;;;;;;6.97;2.30;;;18.80;98.70;;;;;;4995393;28;20476;-78
2022/07/10 09:00:25;;;;;;;7.57;2.27;;;18.80;98.60;;;;;;4996780;28;20564;-79
2022/07/10 09:03:02;;;;;;;3.80;2.30;;;18.90;98.70;;;;;;4994136;28;20551;-77
2022/07/10 09:05:35;;;;;;;6.30;2.40;;;19.00;98.20;;;;;;4996149;28;20500;-76
2022/07/10 09:08:22;;;;;;;4.00;1.90;;;19.00;97.90;;;;;;4995191;28;20441;-78
2022/07/10 09:10:51;;;;;;;6.87;2.50;;;18.90;97.60;;;;;;4995728;28;20829;-76
2022/07/10 09:13:19;;;;;;;3.43;2.13;;;18.90;97.50;;;;;;4995031;28;20819;-77
2022/07/10 09:15:51;;;;;;;6.70;2.23;;;18.90;97.60;;;;;;4995454;28;20472;-78
2022/07/10 09:18:25;;;;;;;5.90;2.10;;;18.90;97.50;;;;;;4995415;28;20480;-78
2022/07/10 09:20:53;;;;;;;12.60;2.60;;;18.90;97.40;;;;;;4996421;28;20982;-77
2022/07/10 09:23:25;;;;;;;9.73;2.53;;;18.80;97.40;;;;;;4994105;28;20453;-78
2022/07/10 09:25:54;;;;;;;5.60;2.23;;;18.90;97.80;;;;;;4995231;28;20499;-79
2022/07/10 09:28:24;;;;;;;8.83;2.77;;;19.00;97.60;;;;;;5001044;28;20499;-78
2022/07/10 09:30:52;;;;;;;5.23;2.10;;;19.10;97.60;;;;;;4995334;28;20468;-81
2022/07/10 09:33:26;;;;;;;3.80;1.60;;;19.30;97.40;;;;;;4996621;28;20487;-77
2022/07/10 09:36:06;;;;;;;5.57;2.27;;;19.30;97.10;;;;;;4994332;28;20986;-78
2022/07/10 09:38:54;;;;;;;5.23;1.80;;;19.20;96.90;;;;;;4995418;28;20421;-78
2022/07/10 09:41:27;;;;;;;6.50;2.17;;;19.10;96.70;;;;;;4993439;28;20534;-77
2022/07/10 09:43:57;;;;;;;6.07;2.50;;;19.10;96.80;;;;;;4993908;28;20523;-78
2022/07/10 09:46:27;;;;;;;4.50;1.97;;;19.00;96.60;;;;;;4995093;28;20913;-77
2022/07/10 09:49:07;;;;;;;8.87;2.37;;;18.90;96.60;;;;;;4996943;28;20449;-79
2022/07/10 09:51:37;;;;;;;6.47;2.07;;;18.90;96.60;;;;;;4994951;28;20472;-78
2022/07/10 09:54:15;;;;;;;7.90;2.47;;;18.90;96.70;;;;;;4995125;28;20524;-78
2022/07/10 09:56:46;;;;;;;6.63;2.03;;;19.00;96.90;;;;;;4995035;28;20522;-77
2022/07/10 09:59:16;;;;;;;6.07;2.20;;;19.10;96.90;;;;;;4994221;28;20468;-78
2022/07/10 10:01:46;;;;;;;5.40;1.90;;;19.10;97.20;;;;;;4993953;28;20515;-78
2022/07/10 10:04:16;;;;;;;3.90;2.20;;;19.20;96.90;;;;;;4994286;28;20846;-77
2022/07/10 10:06:47;;;;;;;7.30;1.90;;;19.20;96.80;;;;;;4994827;28;20821;-76
2022/07/10 10:09:24;;;;;;;4.57;2.20;;;19.10;96.70;;;;;;4994617;28;20531;-77
2022/07/10 10:11:59;;;;;;;3.70;2.10;;;19.20;96.70;;;;;;4995793;28;20503;-78
2022/07/10 10:14:29;;;;;;;8.57;1.87;;;19.20;96.70;;;;;;4997143;28;20838;-78
2022/07/10 10:16:59;;;;;;;5.07;2.00;;;19.20;96.80;;;;;;4996818;28;20452;-78
2022/07/10 10:22:18;;;;;;;5.43;2.30;;;19.10;96.40;;;;;;5003195;28;20460;-79
2022/07/10 10:24:50;;;;;;;7.27;2.10;;;19.00;96.30;;;;;;4999475;28;20440;-79
2022/07/10 10:27:19;;;;;;;6.47;2.40;;;19.00;96.40;;;;;;4998112;28;20504;-79
2022/07/10 10:29:51;;;;;;;5.67;2.03;;;19.00;96.20;;;;;;4996850;28;20441;-80
2022/07/10 10:32:19;;;;;;;6.93;2.33;;;19.00;96.40;;;;;;4999582;28;20920;-80
2022/07/10 10:34:55;;;;;;;3.60;2.13;;;19.00;96.40;;;;;;4999452;28;20433;-78
2022/07/10 10:37:37;;;;;;;5.17;2.27;;;19.10;96.40;;;;;;4999322;28;20460;-79
2022/07/10 10:40:09;;;;;;;5.63;1.80;;;19.10;96.40;;;;;;4998704;28;20468;-79
2022/07/10 10:42:39;;;;;;;5.80;2.30;;;19.10;96.50;;;;;;4997548;28;20464;-78
2022/07/10 10:45:32;;;;;;;4.07;2.27;;;19.20;96.50;;;;;;4999077;28;20423;-79
2022/07/10 10:48:02;;;;;;;7.80;1.90;;;19.20;96.30;;;;;;4998673;28;20492;-77
2022/07/10 10:50:53;;;;;;;5.23;2.67;;;19.20;96.30;;;;;;4997711;28;20472;-77
2022/07/10 10:53:26;;;;;;;4.10;2.10;;;19.20;96.30;;;;;;4998201;28;20449;-79
2022/07/10 10:56:25;;;;;;;4.80;1.93;;;19.20;96.20;;;;;;4997682;28;20523;-79
2022/07/10 10:58:55;;;;;;;8.00;2.53;;;19.10;96.10;;;;;;4999495;28;20463;-78
2022/07/10 11:01:28;;;;;;;5.33;1.83;;;19.00;96.30;;;;;;4998659;28;21045;-79
2022/07/10 11:04:17;;;;;;;9.33;2.27;;;19.00;96.40;;;;;;4999241;28;20441;-78
2022/07/10 11:06:49;;;;;;;3.37;1.57;;;19.00;96.50;;;;;;4997989;28;20443;-79
2022/07/10 11:09:28;;;;;;;6.40;1.97;;;19.00;96.60;;;;;;4999298;28;20424;-80
2022/07/10 11:12:05;;;;;;;3.60;1.60;;;19.00;96.80;;;;;;4997569;28;20559;-78
2022/07/10 11:14:36;;;;;;;2.93;1.37;;;19.00;96.90;;;;;;4997420;28;20926;-79
2022/07/10 11:17:05;;;;;;;3.67;1.97;;;19.10;97.00;;;;;;4998300;28;20472;-77
2022/07/10 11:19:34;;;;;;;3.30;1.77;;;19.20;97.10;;;;;;4997762;28;20506;-77
2022/07/10 11:22:36;;;;;;;4.73;1.73;;;19.20;97.20;;;;;;4998845;28;20475;-78
2022/07/10 11:25:19;;;;;;;4.93;2.23;;;19.20;97.20;;;;;;4999012;28;20464;-78
2022/07/10 11:28:08;;;;;;;5.70;2.30;;;19.20;97.40;;;;;;4997251;28;20441;-78
2022/07/10 11:30:49;;;;;;;6.90;2.70;;;19.20;97.50;;;;;;4998507;28;20453;-79
2022/07/10 11:33:20;;;;;;;5.73;2.20;;;19.20;97.60;;;;;;4996563;28;20499;-78
2022/07/10 11:35:50;;;;;;;6.63;2.27;;;19.20;97.60;;;;;;4996519;28;20826;-79
2022/07/10 11:38:23;;;;;;;4.50;2.10;;;19.20;97.60;;;;;;4997557;28;20830;-81
2022/07/10 11:40:53;;;;;;;5.10;2.50;;;19.20;97.60;;;;;;4999244;28;20472;-79
2022/07/10 11:43:24;;;;;;;6.60;2.37;;;19.20;97.70;;;;;;4997578;28;20483;-79
2022/07/10 11:45:54;;;;;;;6.10;2.00;;;19.20;97.80;;;;;;4997660;28;20539;-81
2022/07/10 11:48:24;;;;;;;6.13;2.43;;;19.30;98.00;;;;;;4998016;28;20487;-79
2022/07/10 11:50:52;;;;;;;5.80;2.67;;;19.30;98.00;;;;;;4997244;28;20535;-80
2022/07/10 11:53:25;;;;;;;4.87;1.60;;;19.40;97.90;;;;;;4997363;28;20974;-78
2022/07/10 11:55:54;;;;;;;2.70;1.30;;;19.40;97.80;;;;;;4997435;28;20449;-78
2022/07/10 11:58:23;;;;;;;3.87;1.60;;;19.40;98.00;;;;;;4998329;28;20475;-78
2022/07/10 12:01:01;;;;;;;6.10;1.77;;;19.40;97.70;;;;;;4998113;28;20512;-78
2022/07/10 12:03:30;;;;;;;4.13;1.77;;;19.40;97.60;;;;;;4998287;28;20417;-77
2022/07/10 12:06:03;;;;;;;4.20;1.53;;;19.30;97.60;;;;;;4998226;28;20464;-78
2022/07/10 12:08:42;;;;;;;4.47;2.20;;;19.20;97.70;;;;;;4997547;28;20479;-78
2022/07/10 12:11:13;;;;;;;2.87;1.57;;;19.20;97.80;;;;;;4998144;28;20472;-80
2022/07/10 12:13:42;;;;;;;3.40;1.40;;;19.10;97.80;;;;;;5001661;28;20428;-78
2022/07/10 12:16:11;;;;;;;2.90;1.50;;;19.10;97.90;;;;;;4999934;28;20441;-78
2022/07/10 12:18:41;;;;;;;3.57;1.50;;;19.00;98.00;;;;;;4999663;28;20476;-78
2022/07/10 12:21:11;;;;;;;7.87;1.53;;;19.00;98.20;;;;;;4998290;28;20624;-78
2022/07/10 12:23:41;;;;;;;5.13;1.40;;;19.00;98.30;;;;;;4997274;28;20453;-79
2022/07/10 12:26:10;;;;;;;4.00;1.57;;;19.00;98.30;;;;;;4996248;28;20484;-78
2022/07/10 12:29:03;;;;;;;3.07;1.47;;;18.90;98.20;;;;;;4997425;28;20536;-80
2022/07/10 12:31:33;;;;;;;1.67;0.80;;;18.80;98.40;;;;;;4996842;28;20464;-81
2022/07/10 12:34:03;;;;;;;4.10;1.20;;;18.80;98.50;;;;;;4997243;28;20430;-79
2022/07/10 12:36:46;;;;;;;2.03;1.07;;;18.80;98.60;;;;;;4995771;28;20469;-79
2022/07/10 12:39:16;;;;;;;2.97;1.73;;;18.80;99.00;;;;;;4997498;28;20495;-79
2022/07/10 12:41:59;;;;;;;3.93;1.73;;;18.80;99.00;;;;;;4996750;28;20472;-79
2022/07/10 12:44:36;;;;;;;2.57;1.30;;;19.00;99.30;;;;;;4996006;28;20463;-78
2022/07/10 12:47:08;;;;;;;3.50;1.23;;;19.00;99.40;;;;;;4997366;28;20425;-78
2022/07/10 12:49:54;;;;;;;2.63;1.20;;;19.10;99.40;;;;;;4995876;28;20452;-81
2022/07/10 12:52:24;;;;;;;2.90;1.20;;;19.20;99.40;;;;;;4997291;28;20794;-79
2022/07/10 12:55:13;;;;;;;3.10;1.00;;;19.20;99.40;;;;;;4997678;28;20883;-80
2022/07/10 12:57:49;;;;;;;1.70;0.90;;;19.20;99.50;;;;;;4995923;28;20898;-81
2022/07/10 13:00:20;;;;;;;2.63;1.10;;;19.20;99.50;;;;;;4997417;28;20587;-78
2022/07/10 13:02:52;;;;;;;2.07;0.90;;;19.20;99.50;;;;;;4997623;28;20843;-78
2022/07/10 13:05:28;;;;;;;2.30;1.10;;;19.20;99.50;;;;;;4996018;28;20452;-78
2022/07/10 13:08:08;;;;;;;2.37;1.00;;;19.20;99.60;;;;;;4997193;28;20449;-77
2022/07/10 13:10:36;;;;;;;2.03;1.10;;;19.10;99.60;;;;;;4996576;28;20819;-78
2022/07/10 13:13:05;;;;;;;2.17;0.80;;;19.00;99.60;;;;;;4995893;28;20460;-78
2022/07/10 13:15:39;;;;;;;2.60;1.47;;;19.00;99.70;;;;;;4995439;28;20950;-78
2022/07/10 13:18:08;;;;;;;2.90;0.90;;;18.90;99.70;;;;;;4994848;28;20524;-78